RJTO(METAR)
07/17 16:00
METAR RJTO 170700Z 21007KT 180V250 9999 FEW015 26/23 Q1013 RMK
1CU015 A2992=
戻る
トップページへ戻る
IMOC Co,.Ltd.